createdAt,value
2023-04-07T00:00:11.115Z,101696.00
2023-04-07T00:02:12.691Z,101695.13
2023-04-07T00:04:14.439Z,101695.09
2023-04-07T00:06:16.199Z,101691.59
2023-04-07T00:08:17.738Z,101685.47
2023-04-07T00:10:19.227Z,101693.31
2023-04-07T00:12:20.688Z,101690.63
2023-04-07T00:14:22.145Z,101694.09
2023-04-07T00:16:24.322Z,101692.34
2023-04-07T00:18:26.140Z,101694.06
2023-04-07T00:20:27.640Z,101690.56
2023-04-07T00:22:29.446Z,101687.03
2023-04-07T00:24:34.437Z,101686.16
2023-04-07T00:26:36.341Z,101682.63
2023-04-07T00:28:37.943Z,101685.25
2023-04-07T00:30:39.396Z,101692.22
2023-04-07T00:32:40.978Z,101689.56
2023-04-07T00:34:42.594Z,101685.16
2023-04-07T00:36:44.050Z,101690.34
2023-04-07T00:38:45.502Z,101694.69
2023-04-07T00:40:47.023Z,101693.81
2023-04-07T00:42:48.491Z,101694.66
2023-04-07T00:44:49.934Z,101705.09
2023-04-07T00:46:51.518Z,101695.47
2023-04-07T00:48:53.128Z,101693.72
2023-04-07T00:50:54.660Z,101690.19
2023-04-07T00:52:57.128Z,101690.19
2023-04-07T00:55:00.280Z,101691.03
2023-04-07T00:57:01.782Z,101687.50
2023-04-07T00:59:06.409Z,101692.72
2023-04-07T01:01:13.656Z,101698.78
2023-04-07T01:03:26.157Z,101695.28
2023-04-07T01:05:54.664Z,101695.19
2023-04-07T01:08:08.677Z,101694.28
2023-04-07T01:10:17.369Z,101696.88
2023-04-07T01:12:29.834Z,101689.00
2023-04-07T01:14:37.053Z,101695.09
2023-04-07T01:16:45.803Z,101688.06
2023-04-07T01:18:51.053Z,101688.91
2023-04-07T01:20:56.381Z,101683.69
2023-04-07T01:23:04.073Z,101683.66
2023-04-07T01:25:30.537Z,101685.38
2023-04-07T01:27:57.617Z,101682.75
2023-04-07T01:30:03.417Z,101681.00
2023-04-07T01:32:08.224Z,101682.72
2023-04-07T01:34:11.861Z,101681.84
2023-04-07T01:36:15.893Z,101683.56
2023-04-07T01:38:17.933Z,101683.53
2023-04-07T01:40:21.371Z,101685.25
2023-04-07T01:42:23.442Z,101684.38
2023-04-07T01:44:26.158Z,101686.13
2023-04-07T01:46:27.739Z,101684.34
2023-04-07T01:48:29.214Z,101689.53
2023-04-07T01:50:30.852Z,101682.53
2023-04-07T01:52:36.417Z,101678.19
2023-04-07T01:54:38.204Z,101678.13
2023-04-07T01:56:39.660Z,101693.81
2023-04-07T01:58:41.273Z,101689.44
2023-04-07T02:00:43.478Z,101685.94
2023-04-07T02:02:49.051Z,101688.53
2023-04-07T02:05:00.200Z,101689.38
2023-04-07T02:07:09.647Z,101691.13
2023-04-07T02:09:15.432Z,101693.69
2023-04-07T02:11:20.526Z,101694.56
2023-04-07T02:13:23.320Z,101695.41
2023-04-07T02:15:25.533Z,101695.38
2023-04-07T02:17:29.312Z,101690.13
2023-04-07T02:19:30.927Z,101699.66
2023-04-07T02:21:34.393Z,101694.44
2023-04-07T02:23:36.077Z,101696.16
2023-04-07T02:25:40.564Z,101694.38
2023-04-07T02:27:42.086Z,101692.59
2023-04-07T02:29:43.550Z,101690.81
2023-04-07T02:31:45.113Z,101689.03
2023-04-07T02:33:46.600Z,101687.25
2023-04-07T02:35:48.092Z,101685.50
2023-04-07T02:37:50.609Z,101682.84
2023-04-07T02:39:52.135Z,101687.16
2023-04-07T02:41:53.637Z,101691.47
2023-04-07T02:43:55.415Z,101686.25
2023-04-07T02:45:57.141Z,101694.06
2023-04-07T02:47:58.764Z,101686.19
2023-04-07T02:50:00.342Z,101686.19
2023-04-07T02:52:01.847Z,101694.00
2023-04-07T02:54:03.322Z,101692.22
2023-04-07T02:56:04.886Z,101687.84
2023-04-07T02:58:06.392Z,101689.56
2023-04-07T03:00:08.491Z,101693.06
2023-04-07T03:02:10.248Z,101698.28
2023-04-07T03:04:12.282Z,101700.00
2023-04-07T03:06:14.472Z,101697.38
2023-04-07T03:08:16.144Z,101699.97
2023-04-07T03:10:17.639Z,101695.59
2023-04-07T03:12:19.161Z,101700.81
2023-04-07T03:14:20.634Z,101704.28
2023-04-07T03:16:22.219Z,101699.88
2023-04-07T03:18:23.830Z,101700.75
2023-04-07T03:20:25.294Z,101693.78
2023-04-07T03:22:26.807Z,101694.63
2023-04-07T03:24:28.262Z,101694.59
2023-04-07T03:26:29.759Z,101699.78
2023-04-07T03:28:31.287Z,101700.63
2023-04-07T03:30:32.805Z,101700.63
2023-04-07T03:32:34.321Z,101697.06
2023-04-07T03:34:35.971Z,101702.28
2023-04-07T03:36:37.505Z,101703.97
2023-04-07T03:38:38.988Z,101700.47
2023-04-07T03:40:40.762Z,101696.09
2023-04-07T03:42:42.985Z,101693.47
2023-04-07T03:44:44.517Z,101701.25
2023-04-07T03:46:47.120Z,101700.38
2023-04-07T03:48:48.644Z,101700.31
2023-04-07T03:50:50.134Z,101698.56
2023-04-07T03:52:51.691Z,101704.63
2023-04-07T03:54:53.148Z,101702.84
2023-04-07T03:56:54.654Z,101712.41
2023-04-07T03:58:56.227Z,101710.63
2023-04-07T04:00:57.969Z,101714.94
2023-04-07T04:03:00.702Z,101715.75
2023-04-07T04:05:02.331Z,101710.50
2023-04-07T04:07:03.804Z,101718.31
2023-04-07T04:09:05.545Z,101718.28
2023-04-07T04:11:07.007Z,101716.53
2023-04-07T04:13:08.496Z,101718.22
2023-04-07T04:15:10.797Z,101721.69
2023-04-07T04:17:12.270Z,101712.94
2023-04-07T04:19:13.745Z,101720.72
2023-04-07T04:21:15.273Z,101721.59
2023-04-07T04:23:16.727Z,101721.53
2023-04-07T04:25:18.860Z,101723.22
2023-04-07T04:27:20.468Z,101724.06
2023-04-07T04:29:21.985Z,101725.75
2023-04-07T04:31:23.475Z,101731.84
2023-04-07T04:33:25.030Z,101730.06
2023-04-07T04:35:27.220Z,101728.28
2023-04-07T04:37:28.679Z,101733.50
2023-04-07T04:39:30.137Z,101740.44
2023-04-07T04:41:31.683Z,101739.56
2023-04-07T04:43:33.200Z,101737.78
2023-04-07T04:45:34.840Z,101741.25
2023-04-07T04:47:38.978Z,101746.44
2023-04-07T04:49:41.249Z,101748.19
2023-04-07T04:51:42.731Z,101747.28
2023-04-07T04:53:44.210Z,101751.63
2023-04-07T04:55:48.171Z,101752.50
2023-04-07T04:57:49.672Z,101759.47
2023-04-07T04:59:51.528Z,101756.84
2023-04-07T05:01:53.080Z,101753.38
2023-04-07T05:03:55.114Z,101756.00
2023-04-07T05:05:57.054Z,101759.47
2023-04-07T05:07:58.548Z,101759.47
2023-04-07T05:10:00.069Z,101762.06
2023-04-07T05:12:02.563Z,101764.69
2023-04-07T05:14:04.049Z,101769.03
2023-04-07T05:16:06.615Z,101779.50
2023-04-07T05:18:08.172Z,101772.59
2023-04-07T05:20:10.925Z,101773.50
2023-04-07T05:22:12.496Z,101781.38
2023-04-07T05:24:14.007Z,101782.31
2023-04-07T05:26:15.791Z,101788.44
2023-04-07T05:28:17.372Z,101775.44
2023-04-07T05:30:18.901Z,101778.16
2023-04-07T05:32:20.357Z,101779.09
2023-04-07T05:34:22.172Z,101780.91
2023-04-07T05:36:23.852Z,101786.22
2023-04-07T05:38:25.865Z,101788.00
2023-04-07T05:40:27.354Z,101788.94
2023-04-07T05:42:28.853Z,101788.16
2023-04-07T05:44:30.340Z,101792.53
2023-04-07T05:46:31.827Z,101795.25
2023-04-07T05:48:33.372Z,101801.38
2023-04-07T05:50:34.893Z,101800.59
2023-04-07T05:52:36.354Z,101798.91
2023-04-07T05:54:39.394Z,101802.50
2023-04-07T05:56:40.916Z,101801.69
2023-04-07T05:58:42.426Z,101803.50
2023-04-07T06:00:43.965Z,101800.94
2023-04-07T06:02:46.182Z,101807.97
2023-04-07T06:04:47.728Z,101806.28
2023-04-07T06:06:49.250Z,101813.34
2023-04-07T06:08:50.855Z,101814.25
2023-04-07T06:10:52.415Z,101820.41
2023-04-07T06:12:53.887Z,101814.44
2023-04-07T06:14:56.504Z,101825.78
2023-04-07T06:16:58.132Z,101823.25
2023-04-07T06:18:59.666Z,101832.91
2023-04-07T06:21:01.337Z,101826.88
2023-04-07T06:23:02.832Z,101826.94
2023-04-07T06:25:04.687Z,101826.97
2023-04-07T06:27:06.715Z,101828.78
2023-04-07T06:29:08.267Z,101834.91
2023-04-07T06:31:09.928Z,101841.09
2023-04-07T06:33:11.424Z,101842.03
2023-04-07T06:35:12.912Z,101839.50
2023-04-07T06:37:16.897Z,101847.41
2023-04-07T06:39:18.556Z,101850.09
2023-04-07T06:41:20.232Z,101853.63
2023-04-07T06:43:21.751Z,101850.22
2023-04-07T06:45:23.498Z,101856.38
2023-04-07T06:47:25.041Z,101852.09
2023-04-07T06:49:26.553Z,101859.13
2023-04-07T06:51:28.043Z,101853.97
2023-04-07T06:53:29.519Z,101855.78
2023-04-07T06:55:31.353Z,101857.59
2023-04-07T06:57:32.992Z,101863.78
2023-04-07T06:59:34.453Z,101860.34
2023-04-07T07:01:37.682Z,101861.28
2023-04-07T07:03:39.519Z,101861.34
2023-04-07T07:05:41.067Z,101869.31
2023-04-07T07:07:42.537Z,101871.97
2023-04-07T07:09:43.995Z,101872.88
2023-04-07T07:11:46.056Z,101869.47
2023-04-07T07:13:48.090Z,101872.16
2023-04-07T07:15:50.440Z,101869.63
2023-04-07T07:17:51.977Z,101873.22
2023-04-07T07:19:53.551Z,101873.28
2023-04-07T07:21:55.763Z,101878.56
2023-04-07T07:23:57.364Z,101875.09
2023-04-07T07:25:58.870Z,101882.06
2023-04-07T07:28:00.432Z,101890.81
2023-04-07T07:30:01.980Z,101890.94
2023-04-07T07:32:03.558Z,101890.13
2023-04-07T07:34:05.063Z,101885.84
2023-04-07T07:36:07.517Z,101894.63
2023-04-07T07:38:09.041Z,101889.44
2023-04-07T07:40:11.155Z,101892.97
2023-04-07T07:42:12.823Z,101900.88
2023-04-07T07:44:14.316Z,101892.16
2023-04-07T07:46:15.911Z,101891.34
2023-04-07T07:48:17.499Z,101901.00
2023-04-07T07:50:18.976Z,101898.38
2023-04-07T07:52:23.505Z,101902.75
2023-04-07T07:54:25.380Z,101899.28
2023-04-07T07:56:27.629Z,101896.69
2023-04-07T07:58:29.090Z,101901.09
2023-04-07T08:00:30.766Z,101902.03
2023-04-07T08:02:33.979Z,101900.31
2023-04-07T08:04:36.407Z,101902.97
2023-04-07T08:06:38.128Z,101908.22
2023-04-07T08:08:39.842Z,101909.09
2023-04-07T08:10:41.427Z,101916.13
2023-04-07T08:12:42.914Z,101907.38
2023-04-07T08:14:44.717Z,101912.66
2023-04-07T08:16:46.564Z,101915.34
2023-04-07T08:18:48.459Z,101921.47
2023-04-07T08:20:50.150Z,101925.88
2023-04-07T08:22:51.625Z,101921.47
2023-04-07T08:24:53.120Z,101916.22
2023-04-07T08:26:54.649Z,101919.75
2023-04-07T08:28:56.523Z,101919.75
2023-04-07T08:30:57.968Z,101916.25
2023-04-07T08:32:59.733Z,101926.75
2023-04-07T08:35:01.391Z,101919.72
2023-04-07T08:37:03.006Z,101922.38
2023-04-07T08:39:05.685Z,101918.88
2023-04-07T08:41:17.513Z,101916.22
2023-04-07T08:43:20.234Z,101928.47
2023-04-07T08:45:22.378Z,101925.88
2023-04-07T08:47:26.508Z,101922.34
2023-04-07T08:49:30.779Z,101932.00
2023-04-07T08:51:33.210Z,101933.72
2023-04-07T08:53:50.492Z,101927.50
2023-04-07T08:55:52.819Z,101930.97
2023-04-07T08:57:54.743Z,101929.22
2023-04-07T08:59:57.795Z,101939.72
2023-04-07T09:01:59.672Z,101932.66
2023-04-07T09:04:03.663Z,101928.19
2023-04-07T09:06:05.411Z,101929.00
2023-04-07T09:08:06.911Z,101930.75
2023-04-07T09:10:08.867Z,101928.94
2023-04-07T09:12:11.353Z,101929.75
2023-04-07T09:14:13.107Z,101928.78
2023-04-07T09:16:14.695Z,101934.03
2023-04-07T09:18:17.001Z,101932.19
2023-04-07T09:20:18.504Z,101933.03
2023-04-07T09:22:38.114Z,101940.94
2023-04-07T09:24:40.520Z,101940.09
2023-04-07T09:26:41.968Z,101947.13
2023-04-07T09:28:48.325Z,101932.16
2023-04-07T09:30:54.610Z,101942.56
2023-04-07T09:32:56.782Z,101940.72
2023-04-07T09:34:59.401Z,101939.84
2023-04-07T09:37:02.090Z,101928.28
2023-04-07T09:39:08.627Z,101930.81
2023-04-07T09:41:15.296Z,101930.66
2023-04-07T09:43:18.791Z,101930.56
2023-04-07T09:45:34.751Z,101936.66
2023-04-07T09:47:38.197Z,101934.94
2023-04-07T09:49:53.970Z,101939.28
2023-04-07T09:51:58.220Z,101932.13
2023-04-07T09:53:59.792Z,101932.88
2023-04-07T09:56:01.772Z,101935.41
2023-04-07T09:58:04.675Z,101938.06
2023-04-07T10:00:06.923Z,101930.13
2023-04-07T10:02:09.303Z,101927.38
2023-04-07T10:04:11.488Z,101929.94
2023-04-07T10:06:13.712Z,101939.53
2023-04-07T10:08:15.752Z,101936.00
2023-04-07T10:10:17.610Z,101939.38
2023-04-07T10:12:19.499Z,101932.19
2023-04-07T10:14:23.356Z,101932.91
2023-04-07T10:16:25.767Z,101932.81
2023-04-07T10:18:31.774Z,101933.66
2023-04-07T10:20:33.348Z,101939.84
2023-04-07T10:22:37.029Z,101938.81
2023-04-07T10:25:06.342Z,101935.03
2023-04-07T10:27:12.670Z,101938.38
2023-04-07T10:29:15.388Z,101943.66
2023-04-07T10:31:21.348Z,101945.41
2023-04-07T10:33:47.871Z,101937.22
2023-04-07T10:36:07.046Z,101949.66
2023-04-07T10:38:08.653Z,101954.09
2023-04-07T10:40:19.611Z,101936.28
2023-04-07T10:42:39.277Z,101948.22
2023-04-07T10:44:40.738Z,101954.16
2023-04-07T10:46:45.054Z,101955.63
2023-04-07T10:49:10.158Z,101950.69
2023-04-07T10:51:18.134Z,101955.53
2023-04-07T10:53:22.590Z,101954.97
2023-04-07T10:55:32.507Z,101946.41
2023-04-07T10:57:34.276Z,101947.69
2023-04-07T10:59:36.782Z,101943.38
2023-04-07T11:01:38.344Z,101946.25
2023-04-07T11:03:42.491Z,101944.81
2023-04-07T11:05:44.092Z,101943.28
2023-04-07T11:07:55.334Z,101944.19
2023-04-07T11:10:10.983Z,101951.03
2023-04-07T11:12:25.026Z,101949.22
2023-04-07T11:14:31.716Z,101954.00
2023-04-07T11:16:38.679Z,101953.13
2023-04-07T11:18:41.881Z,101946.00
2023-04-07T11:20:46.790Z,101953.94
2023-04-07T11:23:00.666Z,101956.53
2023-04-07T11:25:02.119Z,101951.50
2023-04-07T11:27:04.066Z,101965.66
2023-04-07T11:29:06.046Z,101952.19
2023-04-07T11:31:08.531Z,101959.41
2023-04-07T11:33:14.397Z,101963.44
2023-04-07T11:35:16.699Z,101963.19
2023-04-07T11:37:28.873Z,101954.50
2023-04-07T11:39:31.291Z,101951.28
2023-04-07T11:41:33.881Z,101958.38
2023-04-07T11:43:36.591Z,101958.38
2023-04-07T11:45:38.057Z,101956.25
2023-04-07T11:47:40.747Z,101959.53
2023-04-07T11:49:47.042Z,101960.47
2023-04-07T11:51:48.574Z,101952.88
2023-04-07T11:53:56.811Z,101953.31
2023-04-07T11:56:09.830Z,101954.38
2023-04-07T11:58:12.265Z,101958.63
2023-04-07T12:00:15.846Z,101953.25
2023-04-07T12:02:36.138Z,101953.28
2023-04-07T12:04:40.263Z,101959.50
2023-04-07T12:06:42.722Z,101958.66
2023-04-07T12:08:44.715Z,101960.03
2023-04-07T12:10:46.636Z,101961.06
2023-04-07T12:12:49.197Z,101962.53
2023-04-07T12:14:51.376Z,101956.63
2023-04-07T12:16:56.241Z,101959.06
2023-04-07T12:18:57.896Z,101965.75
2023-04-07T12:20:59.510Z,101958.88
2023-04-07T12:23:01.382Z,101958.75
2023-04-07T12:25:02.891Z,101960.13
2023-04-07T12:27:04.450Z,101962.00
2023-04-07T12:29:06.929Z,101960.88
2023-04-07T12:31:08.429Z,101963.47
2023-04-07T12:33:09.892Z,101959.06
2023-04-07T12:35:11.751Z,101962.22
2023-04-07T12:37:13.373Z,101957.94
2023-04-07T12:39:16.047Z,101959.31
2023-04-07T12:41:17.509Z,101961.22
2023-04-07T12:43:19.173Z,101962.69
2023-04-07T12:45:21.202Z,101963.84
2023-04-07T12:47:22.808Z,101958.47
2023-04-07T12:49:24.297Z,101959.41
2023-04-07T12:51:26.360Z,101967.81
2023-04-07T12:53:27.899Z,101968.69
2023-04-07T12:55:30.760Z,101967.81
2023-04-07T12:57:32.822Z,101970.34
2023-04-07T12:59:34.652Z,101975.34
2023-04-07T13:01:37.265Z,101979.06
2023-04-07T13:03:39.040Z,101971.69
2023-04-07T13:05:40.649Z,101967.28
2023-04-07T13:07:42.127Z,101969.53
2023-04-07T13:09:43.659Z,101969.56
2023-04-07T13:11:46.000Z,101970.06
2023-04-07T13:13:47.743Z,101969.13
2023-04-07T13:15:49.469Z,101966.75
2023-04-07T13:17:51.341Z,101964.75
2023-04-07T13:19:52.927Z,101964.28
2023-04-07T13:21:54.900Z,101960.56
2023-04-07T13:23:56.629Z,101958.25
2023-04-07T13:25:58.311Z,101967.47
2023-04-07T13:27:59.829Z,101955.88
2023-04-07T13:30:01.673Z,101954.06
2023-04-07T13:32:07.094Z,101956.66
2023-04-07T13:34:08.624Z,101955.47
2023-04-07T13:36:10.349Z,101962.41
2023-04-07T13:38:11.961Z,101960.91
2023-04-07T13:40:13.472Z,101954.81
2023-04-07T13:42:18.050Z,101961.13
2023-04-07T13:44:19.541Z,101966.41
2023-04-07T13:46:28.465Z,101961.91
2023-04-07T13:48:30.546Z,101960.47
2023-04-07T13:50:31.990Z,101963.38
2023-04-07T13:52:35.321Z,101959.47
2023-04-07T13:54:38.142Z,101966.22
2023-04-07T13:56:40.376Z,101963.75
2023-04-07T13:58:41.935Z,101962.03
2023-04-07T14:00:43.452Z,101966.16
2023-04-07T14:02:45.969Z,101965.22
2023-04-07T14:04:47.589Z,101967.38
2023-04-07T14:06:49.040Z,101960.44
2023-04-07T14:08:51.393Z,101958.63
2023-04-07T14:10:53.050Z,101956.72
2023-04-07T14:12:54.500Z,101957.97
2023-04-07T14:14:56.577Z,101953.69
2023-04-07T14:16:58.194Z,101958.25
2023-04-07T14:18:59.678Z,101966.28
2023-04-07T14:21:03.217Z,101964.69
2023-04-07T14:23:04.697Z,101953.63
2023-04-07T14:25:06.720Z,101956.81
2023-04-07T14:27:08.191Z,101949.97
2023-04-07T14:29:09.714Z,101955.66
2023-04-07T14:31:15.828Z,101954.94
2023-04-07T14:33:17.450Z,101963.91
2023-04-07T14:35:19.017Z,101960.50
2023-04-07T14:37:24.593Z,101956.28
2023-04-07T14:39:26.177Z,101956.22
2023-04-07T14:41:28.213Z,101961.72
2023-04-07T14:43:30.483Z,101959.06
2023-04-07T14:45:32.757Z,101956.25
2023-04-07T14:47:34.341Z,101961.81
2023-04-07T14:49:35.871Z,101964.59
2023-04-07T14:51:37.373Z,101965.94
2023-04-07T14:53:40.290Z,101971.31
2023-04-07T14:55:42.309Z,101980.34
2023-04-07T14:57:43.835Z,101973.31
2023-04-07T14:59:45.526Z,101968.97
2023-04-07T15:01:47.092Z,101970.56
2023-04-07T15:03:49.036Z,101971.63
2023-04-07T15:05:51.010Z,101971.56
2023-04-07T15:07:52.562Z,101980.41
2023-04-07T15:09:54.084Z,101981.19
2023-04-07T15:11:56.323Z,101977.66
2023-04-07T15:13:58.028Z,101983.13
2023-04-07T15:16:13.234Z,101976.25
2023-04-07T15:18:14.797Z,101974.56
2023-04-07T15:20:16.328Z,101981.78
2023-04-07T15:22:17.783Z,101982.72
2023-04-07T15:24:21.305Z,101985.16
2023-04-07T15:26:22.964Z,101979.31
2023-04-07T15:28:24.975Z,101987.66
2023-04-07T15:30:26.422Z,101987.13
2023-04-07T15:32:31.050Z,101985.50
2023-04-07T15:34:32.604Z,101994.06
2023-04-07T15:36:34.055Z,101995.66
2023-04-07T15:38:36.286Z,101985.97
2023-04-07T15:40:38.552Z,101997.47
2023-04-07T15:42:41.808Z,101995.34
2023-04-07T15:44:43.589Z,101996.81
2023-04-07T15:46:45.481Z,101999.31
2023-04-07T15:48:47.970Z,101995.81
2023-04-07T15:50:49.517Z,101998.88
2023-04-07T15:52:51.173Z,102010.88
2023-04-07T15:54:52.749Z,102013.63
2023-04-07T15:56:54.245Z,102011.69
2023-04-07T15:58:55.930Z,102009.81
2023-04-07T16:00:57.628Z,102014.19
2023-04-07T16:02:59.414Z,102009.78
2023-04-07T16:05:01.147Z,102009.22
2023-04-07T16:07:02.611Z,102008.66
2023-04-07T16:09:04.168Z,102011.44
2023-04-07T16:11:05.755Z,102011.50
2023-04-07T16:13:07.218Z,102011.50
2023-04-07T16:15:11.135Z,102012.19
2023-04-07T16:17:12.727Z,102003.13
2023-04-07T16:19:14.417Z,102017.72
2023-04-07T16:21:16.491Z,102014.59
2023-04-07T16:23:18.092Z,102015.56
2023-04-07T16:25:19.629Z,102025.38
2023-04-07T16:27:21.143Z,102023.66
2023-04-07T16:29:22.630Z,102029.06
2023-04-07T16:31:24.140Z,102030.00
2023-04-07T16:33:26.146Z,102032.03
2023-04-07T16:35:27.852Z,102020.56
2023-04-07T16:37:30.328Z,102026.81
2023-04-07T16:39:31.875Z,102030.75
2023-04-07T16:45:01.274Z,102039.16
2023-04-07T16:47:03.490Z,102036.06
2023-04-07T16:49:05.029Z,102040.09
2023-04-07T16:51:06.574Z,102039.13
2023-04-07T16:53:07.988Z,102043.13
2023-04-07T16:55:09.728Z,102046.16
2023-04-07T16:57:12.100Z,102048.16
2023-04-07T16:59:14.078Z,102034.31
2023-04-07T17:01:15.791Z,102051.50
2023-04-07T17:03:17.499Z,102054.44
2023-04-07T17:05:19.213Z,102048.44
2023-04-07T17:07:20.732Z,102061.19
2023-04-07T17:09:22.180Z,102053.44
2023-04-07T17:11:23.580Z,102058.25
2023-04-07T17:13:24.970Z,102064.78
2023-04-07T17:15:26.503Z,102065.28
2023-04-07T17:17:28.062Z,102080.63
2023-04-07T17:19:29.582Z,102088.75
2023-04-07T17:21:31.925Z,102081.03
2023-04-07T17:23:33.398Z,102077.66
2023-04-07T17:25:34.811Z,102078.84
2023-04-07T17:27:36.342Z,102085.97
2023-04-07T17:29:37.848Z,102089.75
2023-04-07T17:31:39.372Z,102093.53
2023-04-07T17:33:41.170Z,102096.38
2023-04-07T17:35:43.853Z,102098.41
2023-04-07T17:37:46.035Z,102101.22
2023-04-07T17:39:47.532Z,102100.56
2023-04-07T17:41:48.987Z,102111.38
2023-04-07T17:43:50.518Z,102118.53
2023-04-07T17:45:52.570Z,102116.13
2023-04-07T17:47:54.847Z,102117.03
2023-04-07T17:49:56.297Z,102124.19
2023-04-07T17:51:57.719Z,102117.13
2023-04-07T17:53:59.147Z,102124.50
2023-04-07T17:56:00.881Z,102124.50
2023-04-07T17:58:02.314Z,102133.50
2023-04-07T18:00:05.774Z,102136.22
2023-04-07T18:02:10.553Z,102134.53
2023-04-07T18:04:13.053Z,102146.16
2023-04-07T18:06:18.007Z,102142.75
2023-04-07T18:08:19.627Z,102143.84
2023-04-07T18:10:21.039Z,102144.72
2023-04-07T18:12:22.895Z,102151.00
2023-04-07T18:14:24.751Z,102152.81
2023-04-07T18:16:26.265Z,102163.44
2023-04-07T18:18:27.925Z,102162.59
2023-04-07T18:20:29.527Z,102168.84
2023-04-07T18:22:31.592Z,102174.22
2023-04-07T18:24:33.863Z,102173.34
2023-04-07T18:26:36.673Z,102187.66
2023-04-07T18:28:38.173Z,102186.78
2023-04-07T18:30:39.647Z,102185.94
2023-04-07T18:32:41.428Z,102193.22
2023-04-07T18:34:42.961Z,102192.38
2023-04-07T18:36:44.438Z,102205.69
2023-04-07T18:38:45.944Z,102206.63
2023-04-07T18:40:47.365Z,102204.88
2023-04-07T18:42:48.819Z,102217.28
2023-04-07T18:44:50.283Z,102221.75
2023-04-07T18:46:51.954Z,102224.41
2023-04-07T18:48:53.767Z,102218.31
2023-04-07T18:50:56.467Z,102227.19
2023-04-07T18:52:58.722Z,102232.53
2023-04-07T18:55:00.308Z,102234.28
2023-04-07T18:57:02.549Z,102237.00
2023-04-07T18:59:04.246Z,102244.97
2023-04-07T19:01:06.102Z,102239.69
2023-04-07T19:03:08.110Z,102251.16
2023-04-07T19:05:11.663Z,102256.47
2023-04-07T19:07:13.084Z,102253.84
2023-04-07T19:09:14.509Z,102257.44
2023-04-07T19:11:16.268Z,102254.81
2023-04-07T19:13:18.354Z,102263.63
2023-04-07T19:15:19.943Z,102262.78
2023-04-07T19:17:21.723Z,102260.13
2023-04-07T19:19:23.214Z,102260.13
2023-04-07T19:21:24.663Z,102269.81
2023-04-07T19:23:26.181Z,102275.97
2023-04-07T19:25:27.678Z,102269.84
2023-04-07T19:27:29.677Z,102267.22
2023-04-07T19:29:31.307Z,102279.53
2023-04-07T19:31:32.809Z,102281.28
2023-04-07T19:33:35.169Z,102276.03
2023-04-07T19:35:39.005Z,102279.53
2023-04-07T19:37:40.962Z,102280.44
2023-04-07T19:39:46.955Z,102282.19
2023-04-07T19:41:53.770Z,102279.56
2023-04-07T19:43:55.306Z,102292.78
2023-04-07T19:45:57.550Z,102291.03
2023-04-07T19:48:00.135Z,102297.16
2023-04-07T19:50:01.650Z,102294.53
2023-04-07T19:52:03.354Z,102294.53
2023-04-07T19:54:04.791Z,102297.16
2023-04-07T19:56:06.254Z,102305.97
2023-04-07T19:58:07.738Z,102298.94
2023-04-07T20:00:10.316Z,102309.47
2023-04-07T20:02:11.900Z,102310.34
2023-04-07T20:04:13.431Z,102311.22
2023-04-07T20:06:15.304Z,102320.88
2023-04-07T20:08:16.839Z,102314.75
2023-04-07T20:10:18.340Z,102320.88
2023-04-07T20:12:19.777Z,102325.25
2023-04-07T20:14:21.183Z,102332.25
2023-04-07T20:16:22.818Z,102333.97
2023-04-07T20:18:24.275Z,102332.19
2023-04-07T20:20:26.033Z,102341.84
2023-04-07T20:22:27.456Z,102338.31
2023-04-07T20:24:28.893Z,102341.78
2023-04-07T20:26:30.841Z,102337.38
2023-04-07T20:28:32.296Z,102347.03
2023-04-07T20:30:33.792Z,102340.00
2023-04-07T20:32:35.337Z,102345.22
2023-04-07T20:34:36.878Z,102346.97
2023-04-07T20:36:38.279Z,102351.34
2023-04-07T20:38:43.634Z,102353.94
2023-04-07T20:40:45.100Z,102355.63
2023-04-07T20:42:46.699Z,102359.94
2023-04-07T20:44:49.074Z,102359.06
2023-04-07T20:46:51.377Z,102372.22
2023-04-07T20:48:53.270Z,102372.22
2023-04-07T20:50:54.974Z,102364.28
2023-04-07T20:52:56.414Z,102366.88
2023-04-07T20:54:58.322Z,102372.09
2023-04-07T20:57:00.658Z,102372.97
2023-04-07T20:59:02.074Z,102374.72
2023-04-07T21:01:03.584Z,102373.81
2023-04-07T21:03:05.223Z,102372.84
2023-04-07T21:05:07.067Z,102372.84
2023-04-07T21:07:08.479Z,102378.91
2023-04-07T21:09:09.981Z,102378.88
2023-04-07T21:11:11.402Z,102379.75
2023-04-07T21:13:12.815Z,102373.53
2023-04-07T21:15:14.789Z,102378.75
2023-04-07T21:17:16.359Z,102380.47
2023-04-07T21:19:17.776Z,102382.22
2023-04-07T21:21:19.331Z,102383.09
2023-04-07T21:23:20.802Z,102388.31
2023-04-07T21:25:22.260Z,102387.34
2023-04-07T21:27:23.752Z,102382.91
2023-04-07T21:29:29.919Z,102383.84
2023-04-07T21:31:32.370Z,102385.53
2023-04-07T21:33:34.079Z,102384.59
2023-04-07T21:35:35.556Z,102381.88
2023-04-07T21:37:36.997Z,102385.41
2023-04-07T21:39:38.429Z,102383.63
2023-04-07T21:41:39.880Z,102393.22
2023-04-07T21:43:41.636Z,102386.19
2023-04-07T21:45:43.458Z,102391.38
2023-04-07T21:47:45.002Z,102387.00
2023-04-07T21:49:46.519Z,102399.25
2023-04-07T21:51:49.146Z,102393.91
2023-04-07T21:53:50.566Z,102392.94
2023-04-07T21:55:52.493Z,102390.28
2023-04-07T21:57:54.347Z,102393.81
2023-04-07T21:59:55.922Z,102389.41
2023-04-07T22:01:57.900Z,102390.25
2023-04-07T22:04:00.128Z,102385.84
2023-04-07T22:06:01.812Z,102388.47
2023-04-07T22:08:03.311Z,102389.34
2023-04-07T22:10:05.171Z,102392.78
2023-04-07T22:12:06.730Z,102390.97
2023-04-07T22:14:08.134Z,102390.09
2023-04-07T22:16:11.795Z,102390.97
2023-04-07T22:18:13.684Z,102393.59
2023-04-07T22:20:15.919Z,102395.31
2023-04-07T22:22:17.450Z,102392.66
2023-04-07T22:24:18.951Z,102397.88
2023-04-07T22:26:20.706Z,102397.06
2023-04-07T22:28:22.178Z,102403.22
2023-04-07T22:30:24.567Z,102402.31
2023-04-07T22:32:26.238Z,102401.41
2023-04-07T22:34:27.698Z,102405.78
2023-04-07T22:36:29.180Z,102402.28
2023-04-07T22:38:30.889Z,102404.88
2023-04-07T22:40:32.379Z,102405.72
2023-04-07T22:42:33.855Z,102403.13
2023-04-07T22:44:35.488Z,102407.47
2023-04-07T22:46:36.986Z,102403.09
2023-04-07T22:48:38.405Z,102407.44
2023-04-07T22:50:39.918Z,102410.06
2023-04-07T22:52:42.109Z,102398.66
2023-04-07T22:54:43.547Z,102412.63
2023-04-07T22:56:45.272Z,102413.53
2023-04-07T22:58:46.751Z,102414.38
2023-04-07T23:00:48.228Z,102410.88
2023-04-07T23:02:49.842Z,102417.00
2023-04-07T23:04:51.508Z,102412.63
2023-04-07T23:06:53.127Z,102418.78
2023-04-07T23:08:55.725Z,102419.66
2023-04-07T23:10:57.182Z,102417.91
2023-04-07T23:12:58.721Z,102412.63
2023-04-07T23:15:00.335Z,102418.75
2023-04-07T23:17:01.775Z,102422.25
2023-04-07T23:19:03.255Z,102421.38
2023-04-07T23:21:04.891Z,102421.38
2023-04-07T23:23:06.541Z,102424.03